createdAt,value
2022-12-24T00:00:00.864Z,964
2022-12-24T00:15:00.906Z,964
2022-12-24T00:30:00.869Z,964
2022-12-24T00:45:00.970Z,964
2022-12-24T01:00:00.966Z,964
2022-12-24T01:15:00.858Z,964
2022-12-24T01:30:00.892Z,965
2022-12-24T01:45:00.883Z,965
2022-12-24T02:00:00.859Z,965
2022-12-24T02:15:00.939Z,965
2022-12-24T02:30:00.923Z,965
2022-12-24T02:45:00.878Z,965
2022-12-24T03:00:00.936Z,965
2022-12-24T03:15:00.807Z,965
2022-12-24T03:30:00.903Z,965
2022-12-24T03:45:00.836Z,965
2022-12-24T04:00:00.939Z,965
2022-12-24T04:15:00.857Z,966
2022-12-24T04:30:00.824Z,966
2022-12-24T04:45:00.927Z,966
2022-12-24T05:00:00.878Z,966
2022-12-24T05:15:00.837Z,966
2022-12-24T05:30:00.806Z,966
2022-12-24T05:45:00.838Z,966
2022-12-24T06:00:00.949Z,966
2022-12-24T06:15:00.895Z,967
2022-12-24T06:30:00.826Z,967
2022-12-24T06:45:10.857Z,967
2022-12-24T07:00:00.903Z,968
2022-12-24T07:15:00.929Z,967
2022-12-24T07:30:00.888Z,968
2022-12-24T07:45:00.808Z,968
2022-12-24T08:00:00.896Z,968
2022-12-24T08:15:00.816Z,968
2022-12-24T08:30:01.027Z,968
2022-12-24T08:45:00.846Z,969
2022-12-24T09:00:00.878Z,969
2022-12-24T09:15:04.725Z,969
2022-12-24T09:30:00.855Z,969
2022-12-24T09:45:00.857Z,969
2022-12-24T10:00:00.850Z,969
2022-12-24T10:15:01.073Z,969
2022-12-24T10:30:00.835Z,970
2022-12-24T10:45:00.867Z,969
2022-12-24T11:00:00.833Z,970
2022-12-24T11:15:00.850Z,970
2022-12-24T11:30:11.848Z,970
2022-12-24T11:45:00.833Z,969
2022-12-24T12:00:00.892Z,970
2022-12-24T12:15:00.823Z,970
2022-12-24T12:30:00.958Z,970
2022-12-24T12:45:00.862Z,970
2022-12-24T13:00:00.903Z,970
2022-12-24T13:15:00.815Z,970
2022-12-24T13:30:12.253Z,971
2022-12-24T13:45:00.818Z,971
2022-12-24T14:00:00.908Z,970
2022-12-24T14:15:00.875Z,971
2022-12-24T14:30:00.884Z,971
2022-12-24T14:45:00.860Z,971
2022-12-24T15:00:00.874Z,971
2022-12-24T15:15:00.827Z,972
2022-12-24T15:30:00.988Z,972
2022-12-24T15:45:01.123Z,972
2022-12-24T16:00:00.832Z,972
2022-12-24T16:15:00.852Z,973
2022-12-24T16:30:00.753Z,972
2022-12-24T16:45:00.704Z,973
2022-12-24T17:00:00.865Z,973
2022-12-24T17:15:00.769Z,973
2022-12-24T17:30:00.995Z,973
2022-12-24T17:45:00.770Z,973
2022-12-24T18:00:00.868Z,973
2022-12-24T18:15:00.774Z,973
2022-12-24T18:30:00.854Z,973
2022-12-24T18:45:00.688Z,973
2022-12-24T19:00:00.839Z,974
2022-12-24T19:15:00.759Z,974
2022-12-24T19:30:00.822Z,974
2022-12-24T19:45:00.815Z,974
2022-12-24T20:00:00.855Z,975
2022-12-24T20:15:00.721Z,974
2022-12-24T20:30:00.809Z,974
2022-12-24T20:45:00.716Z,974
2022-12-24T21:00:00.778Z,975
2022-12-24T21:15:00.722Z,975
2022-12-24T21:30:00.729Z,975
2022-12-24T21:45:00.736Z,975
2022-12-24T22:00:00.865Z,975
2022-12-24T22:15:00.883Z,975
2022-12-24T22:30:00.800Z,974
2022-12-24T22:45:00.791Z,974
2022-12-24T23:00:00.778Z,975
2022-12-24T23:15:00.926Z,975
2022-12-24T23:30:00.770Z,975
2022-12-24T23:45:00.746Z,975
